sensor_id;sensor_type;location;lat;lon;timestamp;temperature;humidity
14277;DHT22;7222;57.346;12.150;2022-10-24T00:00:40;10.80;99.90
14277;DHT22;7222;57.346;12.150;2022-10-24T00:03:08;10.70;99.90
14277;DHT22;7222;57.346;12.150;2022-10-24T00:05:40;10.80;99.90
14277;DHT22;7222;57.346;12.150;2022-10-24T00:08:08;10.70;99.90
14277;DHT22;7222;57.346;12.150;2022-10-24T00:10:35;10.70;99.90
14277;DHT22;7222;57.346;12.150;2022-10-24T00:13:03;10.70;99.90
14277;DHT22;7222;57.346;12.150;2022-10-24T00:15:30;10.70;99.90
14277;DHT22;7222;57.346;12.150;2022-10-24T00:17:57;10.60;99.90
14277;DHT22;7222;57.346;12.150;2022-10-24T00:20:24;10.60;99.90
14277;DHT22;7222;57.346;12.150;2022-10-24T00:22:52;10.60;99.90
14277;DHT22;7222;57.346;12.150;2022-10-24T00:25:19;10.60;99.90
14277;DHT22;7222;57.346;12.150;2022-10-24T00:27:46;10.60;99.90
14277;DHT22;7222;57.346;12.150;2022-10-24T00:30:13;10.60;99.90
14277;DHT22;7222;57.346;12.150;2022-10-24T00:32:40;10.60;99.90
14277;DHT22;7222;57.346;12.150;2022-10-24T00:35:08;10.60;99.90
14277;DHT22;7222;57.346;12.150;2022-10-24T00:37:35;10.60;99.90
14277;DHT22;7222;57.346;12.150;2022-10-24T00:40:06;10.60;99.90
14277;DHT22;7222;57.346;12.150;2022-10-24T00:42:33;10.60;99.90
14277;DHT22;7222;57.346;12.150;2022-10-24T00:45:00;10.50;99.90
14277;DHT22;7222;57.346;12.150;2022-10-24T00:47:27;10.50;99.90
14277;DHT22;7222;57.346;12.150;2022-10-24T00:49:57;10.50;99.90
14277;DHT22;7222;57.346;12.150;2022-10-24T00:52:33;10.50;99.90
14277;DHT22;7222;57.346;12.150;2022-10-24T00:55:02;10.50;99.90
14277;DHT22;7222;57.346;12.150;2022-10-24T00:57:35;10.50;99.90
14277;DHT22;7222;57.346;12.150;2022-10-24T01:00:07;10.50;99.90
14277;DHT22;7222;57.346;12.150;2022-10-24T01:02:36;10.50;99.90
14277;DHT22;7222;57.346;12.150;2022-10-24T01:05:04;10.50;99.90
14277;DHT22;7222;57.346;12.150;2022-10-24T01:07:39;10.50;99.90
14277;DHT22;7222;57.346;12.150;2022-10-24T01:10:20;10.50;99.90
14277;DHT22;7222;57.346;12.150;2022-10-24T01:13:01;10.50;99.90
14277;DHT22;7222;57.346;12.150;2022-10-24T01:15:39;10.50;99.90
14277;DHT22;7222;57.346;12.150;2022-10-24T01:18:11;10.40;99.90
14277;DHT22;7222;57.346;12.150;2022-10-24T01:21:05;10.50;99.90
14277;DHT22;7222;57.346;12.150;2022-10-24T01:23:53;10.50;99.90
14277;DHT22;7222;57.346;12.150;2022-10-24T01:26:44;10.40;99.90
14277;DHT22;7222;57.346;12.150;2022-10-24T01:29:19;10.40;99.90
14277;DHT22;7222;57.346;12.150;2022-10-24T01:31:54;10.40;99.90
14277;DHT22;7222;57.346;12.150;2022-10-24T01:34:26;10.40;99.90
14277;DHT22;7222;57.346;12.150;2022-10-24T01:36:58;10.40;99.90
14277;DHT22;7222;57.346;12.150;2022-10-24T01:39:30;10.40;99.90
14277;DHT22;7222;57.346;12.150;2022-10-24T01:42:01;10.40;99.90
14277;DHT22;7222;57.346;12.150;2022-10-24T01:44:31;10.40;99.90
14277;DHT22;7222;57.346;12.150;2022-10-24T01:47:05;10.40;99.90
14277;DHT22;7222;57.346;12.150;2022-10-24T01:49:36;10.40;99.90
14277;DHT22;7222;57.346;12.150;2022-10-24T01:52:09;10.40;99.90
14277;DHT22;7222;57.346;12.150;2022-10-24T01:54:38;10.40;99.90
14277;DHT22;7222;57.346;12.150;2022-10-24T01:57:06;10.40;99.90
14277;DHT22;7222;57.346;12.150;2022-10-24T01:59:42;10.40;99.90
14277;DHT22;7222;57.346;12.150;2022-10-24T02:02:16;10.40;99.90
14277;DHT22;7222;57.346;12.150;2022-10-24T02:04:48;10.40;99.90
14277;DHT22;7222;57.346;12.150;2022-10-24T02:07:17;10.40;99.90
14277;DHT22;7222;57.346;12.150;2022-10-24T02:09:48;10.40;99.90
14277;DHT22;7222;57.346;12.150;2022-10-24T02:12:18;10.40;99.90
14277;DHT22;7222;57.346;12.150;2022-10-24T02:14:50;10.30;99.90
14277;DHT22;7222;57.346;12.150;2022-10-24T02:17:20;10.30;99.90
14277;DHT22;7222;57.346;12.150;2022-10-24T02:19:47;10.30;99.90
14277;DHT22;7222;57.346;12.150;2022-10-24T02:22:22;10.30;99.90
14277;DHT22;7222;57.346;12.150;2022-10-24T02:24:54;10.30;99.90
14277;DHT22;7222;57.346;12.150;2022-10-24T02:27:27;10.30;99.90
14277;DHT22;7222;57.346;12.150;2022-10-24T02:29:58;10.30;99.90
14277;DHT22;7222;57.346;12.150;2022-10-24T02:32:31;10.30;99.90
14277;DHT22;7222;57.346;12.150;2022-10-24T02:35:00;10.30;99.90
14277;DHT22;7222;57.346;12.150;2022-10-24T02:37:29;10.30;99.90
14277;DHT22;7222;57.346;12.150;2022-10-24T02:39:59;10.30;99.90
14277;DHT22;7222;57.346;12.150;2022-10-24T02:42:28;10.30;99.90
14277;DHT22;7222;57.346;12.150;2022-10-24T02:44:55;10.30;99.90
14277;DHT22;7222;57.346;12.150;2022-10-24T02:47:24;10.30;99.90
14277;DHT22;7222;57.346;12.150;2022-10-24T02:49:53;10.30;99.90
14277;DHT22;7222;57.346;12.150;2022-10-24T02:52:21;10.40;99.90
14277;DHT22;7222;57.346;12.150;2022-10-24T02:54:49;10.30;99.90
14277;DHT22;7222;57.346;12.150;2022-10-24T02:57:16;10.40;99.90
14277;DHT22;7222;57.346;12.150;2022-10-24T02:59:43;10.40;99.90
14277;DHT22;7222;57.346;12.150;2022-10-24T03:02:10;10.40;99.90
14277;DHT22;7222;57.346;12.150;2022-10-24T03:04:37;10.30;99.90
14277;DHT22;7222;57.346;12.150;2022-10-24T03:07:06;10.40;99.90
14277;DHT22;7222;57.346;12.150;2022-10-24T03:09:33;10.40;99.90
14277;DHT22;7222;57.346;12.150;2022-10-24T03:12:00;10.40;99.90
14277;DHT22;7222;57.346;12.150;2022-10-24T03:14:28;10.40;99.90
14277;DHT22;7222;57.346;12.150;2022-10-24T03:16:55;10.40;99.90
14277;DHT22;7222;57.346;12.150;2022-10-24T03:19:22;10.40;99.90
14277;DHT22;7222;57.346;12.150;2022-10-24T03:21:49;10.40;99.90
14277;DHT22;7222;57.346;12.150;2022-10-24T03:24:17;10.40;99.90
14277;DHT22;7222;57.346;12.150;2022-10-24T03:26:44;10.40;99.90
14277;DHT22;7222;57.346;12.150;2022-10-24T03:29:12;10.50;99.90
14277;DHT22;7222;57.346;12.150;2022-10-24T03:31:39;10.40;99.90
14277;DHT22;7222;57.346;12.150;2022-10-24T03:34:06;10.50;99.90
14277;DHT22;7222;57.346;12.150;2022-10-24T03:36:34;10.50;99.90
14277;DHT22;7222;57.346;12.150;2022-10-24T03:39:01;10.60;99.90
14277;DHT22;7222;57.346;12.150;2022-10-24T03:41:30;10.50;99.90
14277;DHT22;7222;57.346;12.150;2022-10-24T03:43:56;10.60;99.90
14277;DHT22;7222;57.346;12.150;2022-10-24T03:46:23;10.50;99.90
14277;DHT22;7222;57.346;12.150;2022-10-24T03:48:50;10.70;99.90
14277;DHT22;7222;57.346;12.150;2022-10-24T03:51:17;10.70;99.90
14277;DHT22;7222;57.346;12.150;2022-10-24T03:53:44;10.60;99.90
14277;DHT22;7222;57.346;12.150;2022-10-24T03:56:11;10.70;99.90
14277;DHT22;7222;57.346;12.150;2022-10-24T03:58:40;10.60;99.90
14277;DHT22;7222;57.346;12.150;2022-10-24T04:01:07;10.80;99.90
14277;DHT22;7222;57.346;12.150;2022-10-24T04:03:35;10.70;99.90
14277;DHT22;7222;57.346;12.150;2022-10-24T04:06:02;10.70;99.90
14277;DHT22;7222;57.346;12.150;2022-10-24T04:08:29;10.70;99.90
14277;DHT22;7222;57.346;12.150;2022-10-24T04:10:55;10.70;99.90
14277;DHT22;7222;57.346;12.150;2022-10-24T04:13:22;10.80;99.90
14277;DHT22;7222;57.346;12.150;2022-10-24T04:15:51;10.80;99.90
14277;DHT22;7222;57.346;12.150;2022-10-24T04:18:18;10.80;99.90
14277;DHT22;7222;57.346;12.150;2022-10-24T04:20:45;10.80;99.90
14277;DHT22;7222;57.346;12.150;2022-10-24T04:23:13;10.70;99.90
14277;DHT22;7222;57.346;12.150;2022-10-24T04:25:40;10.80;99.90
14277;DHT22;7222;57.346;12.150;2022-10-24T04:28:07;10.80;99.90
14277;DHT22;7222;57.346;12.150;2022-10-24T04:30:34;10.80;99.90
14277;DHT22;7222;57.346;12.150;2022-10-24T04:33:02;10.90;99.90
14277;DHT22;7222;57.346;12.150;2022-10-24T04:35:29;10.80;99.90
14277;DHT22;7222;57.346;12.150;2022-10-24T04:37:56;10.80;99.90
14277;DHT22;7222;57.346;12.150;2022-10-24T04:40:23;10.80;99.90
14277;DHT22;7222;57.346;12.150;2022-10-24T04:42:50;10.80;99.90
14277;DHT22;7222;57.346;12.150;2022-10-24T04:45:17;10.80;99.90
14277;DHT22;7222;57.346;12.150;2022-10-24T04:47:45;10.80;99.90
14277;DHT22;7222;57.346;12.150;2022-10-24T04:50:13;10.80;99.90
14277;DHT22;7222;57.346;12.150;2022-10-24T04:52:40;10.80;99.90
14277;DHT22;7222;57.346;12.150;2022-10-24T04:55:08;10.80;99.90
14277;DHT22;7222;57.346;12.150;2022-10-24T04:57:35;10.80;99.90
14277;DHT22;7222;57.346;12.150;2022-10-24T05:00:03;10.80;99.90
14277;DHT22;7222;57.346;12.150;2022-10-24T05:02:30;10.70;99.90
14277;DHT22;7222;57.346;12.150;2022-10-24T05:04:57;10.80;99.90
14277;DHT22;7222;57.346;12.150;2022-10-24T05:07:26;10.70;99.90
14277;DHT22;7222;57.346;12.150;2022-10-24T05:09:53;10.80;99.90
14277;DHT22;7222;57.346;12.150;2022-10-24T05:12:20;10.80;99.90
14277;DHT22;7222;57.346;12.150;2022-10-24T05:14:47;10.70;99.90
14277;DHT22;7222;57.346;12.150;2022-10-24T05:17:14;10.70;99.90
14277;DHT22;7222;57.346;12.150;2022-10-24T05:19:41;10.70;99.90
14277;DHT22;7222;57.346;12.150;2022-10-24T05:22:08;10.70;99.90
14277;DHT22;7222;57.346;12.150;2022-10-24T05:24:37;10.70;99.90
14277;DHT22;7222;57.346;12.150;2022-10-24T05:27:04;10.70;99.90
14277;DHT22;7222;57.346;12.150;2022-10-24T05:29:31;10.60;99.90
14277;DHT22;7222;57.346;12.150;2022-10-24T05:31:58;10.60;99.90
14277;DHT22;7222;57.346;12.150;2022-10-24T05:34:25;10.60;99.90
14277;DHT22;7222;57.346;12.150;2022-10-24T05:36:52;10.60;99.90
14277;DHT22;7222;57.346;12.150;2022-10-24T05:39:19;10.60;99.90
14277;DHT22;7222;57.346;12.150;2022-10-24T05:41:48;10.60;99.90
14277;DHT22;7222;57.346;12.150;2022-10-24T05:44:16;10.50;99.90
14277;DHT22;7222;57.346;12.150;2022-10-24T05:46:44;10.60;99.90
14277;DHT22;7222;57.346;12.150;2022-10-24T05:49:12;10.60;99.90
14277;DHT22;7222;57.346;12.150;2022-10-24T05:51:39;10.60;99.90
14277;DHT22;7222;57.346;12.150;2022-10-24T05:54:06;10.60;99.90
14277;DHT22;7222;57.346;12.150;2022-10-24T05:56:33;10.60;99.90
14277;DHT22;7222;57.346;12.150;2022-10-24T05:59:01;10.60;99.90
14277;DHT22;7222;57.346;12.150;2022-10-24T06:01:28;10.50;99.90
14277;DHT22;7222;57.346;12.150;2022-10-24T06:03:55;10.60;99.90
14277;DHT22;7222;57.346;12.150;2022-10-24T06:06:22;10.60;99.90
14277;DHT22;7222;57.346;12.150;2022-10-24T06:08:50;10.60;99.90
14277;DHT22;7222;57.346;12.150;2022-10-24T06:11:18;10.60;99.90
14277;DHT22;7222;57.346;12.150;2022-10-24T06:13:45;10.60;99.90
14277;DHT22;7222;57.346;12.150;2022-10-24T06:16:13;10.60;99.90
14277;DHT22;7222;57.346;12.150;2022-10-24T06:18:40;10.60;99.90
14277;DHT22;7222;57.346;12.150;2022-10-24T06:21:08;10.60;99.90
14277;DHT22;7222;57.346;12.150;2022-10-24T06:23:35;10.60;99.90
14277;DHT22;7222;57.346;12.150;2022-10-24T06:26:06;10.60;99.90
14277;DHT22;7222;57.346;12.150;2022-10-24T06:28:34;10.60;99.90
14277;DHT22;7222;57.346;12.150;2022-10-24T06:31:01;10.70;99.90
14277;DHT22;7222;57.346;12.150;2022-10-24T06:33:30;10.70;99.90
14277;DHT22;7222;57.346;12.150;2022-10-24T06:35:58;10.60;99.90
14277;DHT22;7222;57.346;12.150;2022-10-24T06:38:25;10.70;99.90
14277;DHT22;7222;57.346;12.150;2022-10-24T06:40:52;10.70;99.90
14277;DHT22;7222;57.346;12.150;2022-10-24T06:43:19;10.70;99.90
14277;DHT22;7222;57.346;12.150;2022-10-24T06:45:47;10.60;99.90
14277;DHT22;7222;57.346;12.150;2022-10-24T06:48:14;10.70;99.90
14277;DHT22;7222;57.346;12.150;2022-10-24T06:50:42;10.70;99.90
14277;DHT22;7222;57.346;12.150;2022-10-24T06:53:09;10.70;99.90
14277;DHT22;7222;57.346;12.150;2022-10-24T06:55:37;10.70;99.90
14277;DHT22;7222;57.346;12.150;2022-10-24T06:58:05;10.80;99.90
14277;DHT22;7222;57.346;12.150;2022-10-24T07:00:32;10.80;99.90
14277;DHT22;7222;57.346;12.150;2022-10-24T07:03:00;10.80;99.90
14277;DHT22;7222;57.346;12.150;2022-10-24T07:05:27;10.80;99.90
14277;DHT22;7222;57.346;12.150;2022-10-24T07:07:55;10.80;99.90
14277;DHT22;7222;57.346;12.150;2022-10-24T07:10:22;10.80;99.90
14277;DHT22;7222;57.346;12.150;2022-10-24T07:12:49;10.80;99.90
14277;DHT22;7222;57.346;12.150;2022-10-24T07:15:16;10.80;99.90
14277;DHT22;7222;57.346;12.150;2022-10-24T07:17:44;10.90;99.90
14277;DHT22;7222;57.346;12.150;2022-10-24T07:20:12;10.90;99.90
14277;DHT22;7222;57.346;12.150;2022-10-24T07:22:39;10.90;99.90
14277;DHT22;7222;57.346;12.150;2022-10-24T07:25:09;11.00;99.90
14277;DHT22;7222;57.346;12.150;2022-10-24T07:27:36;11.10;99.90
14277;DHT22;7222;57.346;12.150;2022-10-24T07:30:03;11.10;99.90
14277;DHT22;7222;57.346;12.150;2022-10-24T07:32:30;11.20;99.90
14277;DHT22;7222;57.346;12.150;2022-10-24T07:34:57;11.20;99.90
14277;DHT22;7222;57.346;12.150;2022-10-24T07:37:25;11.10;99.90
14277;DHT22;7222;57.346;12.150;2022-10-24T07:39:52;11.30;99.90
14277;DHT22;7222;57.346;12.150;2022-10-24T07:42:21;11.30;99.90
14277;DHT22;7222;57.346;12.150;2022-10-24T07:44:48;11.30;99.90
14277;DHT22;7222;57.346;12.150;2022-10-24T07:47:15;11.40;99.90
14277;DHT22;7222;57.346;12.150;2022-10-24T07:49:42;11.50;99.90
14277;DHT22;7222;57.346;12.150;2022-10-24T07:52:09;11.50;99.90
14277;DHT22;7222;57.346;12.150;2022-10-24T07:54:35;11.50;99.90
14277;DHT22;7222;57.346;12.150;2022-10-24T07:57:02;11.50;99.90
14277;DHT22;7222;57.346;12.150;2022-10-24T07:59:31;11.60;99.90
14277;DHT22;7222;57.346;12.150;2022-10-24T08:01:58;11.60;99.90
14277;DHT22;7222;57.346;12.150;2022-10-24T08:04:25;11.60;99.90
14277;DHT22;7222;57.346;12.150;2022-10-24T08:06:53;11.60;99.90
14277;DHT22;7222;57.346;12.150;2022-10-24T08:09:20;11.60;99.90
14277;DHT22;7222;57.346;12.150;2022-10-24T08:11:47;11.60;99.90
14277;DHT22;7222;57.346;12.150;2022-10-24T08:14:14;11.70;99.90
14277;DHT22;7222;57.346;12.150;2022-10-24T08:16:43;11.70;99.90
14277;DHT22;7222;57.346;12.150;2022-10-24T08:19:11;11.70;99.90
14277;DHT22;7222;57.346;12.150;2022-10-24T08:21:38;11.70;99.90
14277;DHT22;7222;57.346;12.150;2022-10-24T08:24:06;11.80;99.90
14277;DHT22;7222;57.346;12.150;2022-10-24T08:26:33;11.70;99.90
14277;DHT22;7222;57.346;12.150;2022-10-24T08:29:00;11.80;99.90
14277;DHT22;7222;57.346;12.150;2022-10-24T08:31:29;11.90;99.90
14277;DHT22;7222;57.346;12.150;2022-10-24T08:33:57;12.00;99.90
14277;DHT22;7222;57.346;12.150;2022-10-24T08:36:26;12.00;99.90
14277;DHT22;7222;57.346;12.150;2022-10-24T08:38:53;11.90;99.90
14277;DHT22;7222;57.346;12.150;2022-10-24T08:41:26;12.00;99.90
14277;DHT22;7222;57.346;12.150;2022-10-24T08:43:55;12.00;99.90
14277;DHT22;7222;57.346;12.150;2022-10-24T08:46:38;12.10;99.90
14277;DHT22;7222;57.346;12.150;2022-10-24T08:49:16;12.10;99.90
14277;DHT22;7222;57.346;12.150;2022-10-24T08:51:47;12.10;99.90
14277;DHT22;7222;57.346;12.150;2022-10-24T08:54:19;12.10;99.90
14277;DHT22;7222;57.346;12.150;2022-10-24T08:56:49;12.10;99.90
14277;DHT22;7222;57.346;12.150;2022-10-24T08:59:17;12.20;99.90
14277;DHT22;7222;57.346;12.150;2022-10-24T09:01:49;12.20;99.90
14277;DHT22;7222;57.346;12.150;2022-10-24T09:04:19;12.20;99.90
14277;DHT22;7222;57.346;12.150;2022-10-24T09:06:50;12.20;99.90
14277;DHT22;7222;57.346;12.150;2022-10-24T09:09:23;12.40;99.90
14277;DHT22;7222;57.346;12.150;2022-10-24T09:11:54;12.50;99.90
14277;DHT22;7222;57.346;12.150;2022-10-24T09:14:24;12.40;99.90
14277;DHT22;7222;57.346;12.150;2022-10-24T09:16:56;12.50;99.90
14277;DHT22;7222;57.346;12.150;2022-10-24T09:19:27;12.60;99.90
14277;DHT22;7222;57.346;12.150;2022-10-24T09:21:56;12.70;99.90
14277;DHT22;7222;57.346;12.150;2022-10-24T09:24:32;12.60;99.90
14277;DHT22;7222;57.346;12.150;2022-10-24T09:27:00;12.70;99.90
14277;DHT22;7222;57.346;12.150;2022-10-24T09:29:31;12.70;99.90
14277;DHT22;7222;57.346;12.150;2022-10-24T09:31:59;12.80;99.90
14277;DHT22;7222;57.346;12.150;2022-10-24T09:34:28;12.70;99.90
14277;DHT22;7222;57.346;12.150;2022-10-24T09:36:55;12.70;99.90
14277;DHT22;7222;57.346;12.150;2022-10-24T09:39:25;12.70;99.90
14277;DHT22;7222;57.346;12.150;2022-10-24T09:41:53;12.70;99.90
14277;DHT22;7222;57.346;12.150;2022-10-24T09:44:31;12.80;99.90
14277;DHT22;7222;57.346;12.150;2022-10-24T09:47:00;12.80;99.90
14277;DHT22;7222;57.346;12.150;2022-10-24T09:49:33;12.80;99.90
14277;DHT22;7222;57.346;12.150;2022-10-24T09:52:05;12.80;99.90
14277;DHT22;7222;57.346;12.150;2022-10-24T09:54:34;12.80;99.90
14277;DHT22;7222;57.346;12.150;2022-10-24T09:57:10;12.90;99.90
14277;DHT22;7222;57.346;12.150;2022-10-24T09:59:40;13.00;99.90
14277;DHT22;7222;57.346;12.150;2022-10-24T10:02:17;12.90;99.90
14277;DHT22;7222;57.346;12.150;2022-10-24T10:04:48;12.90;99.90
14277;DHT22;7222;57.346;12.150;2022-10-24T10:07:18;12.90;99.90
14277;DHT22;7222;57.346;12.150;2022-10-24T10:09:49;13.00;99.90
14277;DHT22;7222;57.346;12.150;2022-10-24T10:12:28;13.10;99.90
14277;DHT22;7222;57.346;12.150;2022-10-24T10:14:57;13.10;99.90
14277;DHT22;7222;57.346;12.150;2022-10-24T10:17:26;13.00;99.90
14277;DHT22;7222;57.346;12.150;2022-10-24T10:19:57;13.10;99.90
14277;DHT22;7222;57.346;12.150;2022-10-24T10:22:26;13.10;99.90
14277;DHT22;7222;57.346;12.150;2022-10-24T10:24:54;13.20;99.90
14277;DHT22;7222;57.346;12.150;2022-10-24T10:27:34;13.30;99.90
14277;DHT22;7222;57.346;12.150;2022-10-24T10:30:22;13.30;99.90
14277;DHT22;7222;57.346;12.150;2022-10-24T10:32:59;13.30;99.90
14277;DHT22;7222;57.346;12.150;2022-10-24T10:35:38;13.20;99.90
14277;DHT22;7222;57.346;12.150;2022-10-24T10:38:18;13.30;99.90
14277;DHT22;7222;57.346;12.150;2022-10-24T10:40:54;13.40;99.90
14277;DHT22;7222;57.346;12.150;2022-10-24T10:43:32;13.30;99.90
14277;DHT22;7222;57.346;12.150;2022-10-24T10:46:12;13.30;99.90
14277;DHT22;7222;57.346;12.150;2022-10-24T10:48:51;13.30;99.90
14277;DHT22;7222;57.346;12.150;2022-10-24T10:51:28;13.40;99.90
14277;DHT22;7222;57.346;12.150;2022-10-24T10:54:03;13.30;99.90
14277;DHT22;7222;57.346;12.150;2022-10-24T10:56:38;13.30;99.90
14277;DHT22;7222;57.346;12.150;2022-10-24T10:59:18;13.50;99.90
14277;DHT22;7222;57.346;12.150;2022-10-24T11:01:52;13.50;99.90
14277;DHT22;7222;57.346;12.150;2022-10-24T11:04:29;13.40;99.90
14277;DHT22;7222;57.346;12.150;2022-10-24T11:07:05;13.50;99.90
14277;DHT22;7222;57.346;12.150;2022-10-24T11:09:36;13.50;99.90
14277;DHT22;7222;57.346;12.150;2022-10-24T11:12:10;13.50;99.90
14277;DHT22;7222;57.346;12.150;2022-10-24T11:14:41;13.60;99.90
14277;DHT22;7222;57.346;12.150;2022-10-24T11:17:14;13.60;99.90
14277;DHT22;7222;57.346;12.150;2022-10-24T11:19:52;13.60;99.90
14277;DHT22;7222;57.346;12.150;2022-10-24T11:22:25;13.70;99.90
14277;DHT22;7222;57.346;12.150;2022-10-24T11:24:58;13.70;99.90
14277;DHT22;7222;57.346;12.150;2022-10-24T11:27:33;13.70;99.90
14277;DHT22;7222;57.346;12.150;2022-10-24T11:30:04;13.70;99.90
14277;DHT22;7222;57.346;12.150;2022-10-24T11:32:34;13.70;99.90
14277;DHT22;7222;57.346;12.150;2022-10-24T11:35:17;13.80;99.90
14277;DHT22;7222;57.346;12.150;2022-10-24T11:37:52;13.80;99.90
14277;DHT22;7222;57.346;12.150;2022-10-24T11:40:22;13.80;99.90
14277;DHT22;7222;57.346;12.150;2022-10-24T11:42:53;13.90;99.90
14277;DHT22;7222;57.346;12.150;2022-10-24T11:45:23;13.90;99.90
14277;DHT22;7222;57.346;12.150;2022-10-24T11:48:05;13.90;99.90
14277;DHT22;7222;57.346;12.150;2022-10-24T11:50:41;14.10;99.90
14277;DHT22;7222;57.346;12.150;2022-10-24T11:53:19;14.10;99.90
14277;DHT22;7222;57.346;12.150;2022-10-24T11:55:52;14.10;99.90
14277;DHT22;7222;57.346;12.150;2022-10-24T11:58:22;14.20;99.90
14277;DHT22;7222;57.346;12.150;2022-10-24T12:01:13;14.10;99.90
14277;DHT22;7222;57.346;12.150;2022-10-24T12:04:01;14.20;99.90
14277;DHT22;7222;57.346;12.150;2022-10-24T12:06:58;14.10;99.90
14277;DHT22;7222;57.346;12.150;2022-10-24T12:09:46;14.20;99.90
14277;DHT22;7222;57.346;12.150;2022-10-24T12:15:37;14.30;99.90
14277;DHT22;7222;57.346;12.150;2022-10-24T12:18:10;14.40;99.90
14277;DHT22;7222;57.346;12.150;2022-10-24T12:20:39;14.50;99.90
14277;DHT22;7222;57.346;12.150;2022-10-24T12:23:17;14.50;99.90
14277;DHT22;7222;57.346;12.150;2022-10-24T12:26:04;14.60;99.90
14277;DHT22;7222;57.346;12.150;2022-10-24T12:28:33;14.60;99.90
14277;DHT22;7222;57.346;12.150;2022-10-24T12:31:17;14.60;99.90
14277;DHT22;7222;57.346;12.150;2022-10-24T12:33:45;14.70;99.90
14277;DHT22;7222;57.346;12.150;2022-10-24T12:36:13;14.70;99.90
14277;DHT22;7222;57.346;12.150;2022-10-24T12:39:07;14.80;99.90
14277;DHT22;7222;57.346;12.150;2022-10-24T12:41:41;14.80;99.90
14277;DHT22;7222;57.346;12.150;2022-10-24T12:44:37;15.00;99.90
14277;DHT22;7222;57.346;12.150;2022-10-24T12:47:28;14.90;99.90
14277;DHT22;7222;57.346;12.150;2022-10-24T12:49:56;15.10;99.90
14277;DHT22;7222;57.346;12.150;2022-10-24T12:52:49;15.10;99.90
14277;DHT22;7222;57.346;12.150;2022-10-24T12:56:00;15.10;99.90
14277;DHT22;7222;57.346;12.150;2022-10-24T12:58:24;15.00;99.90
14277;DHT22;7222;57.346;12.150;2022-10-24T13:00:55;15.00;99.90
14277;DHT22;7222;57.346;12.150;2022-10-24T13:06:23;15.00;99.90
14277;DHT22;7222;57.346;12.150;2022-10-24T13:09:13;15.10;99.90
14277;DHT22;7222;57.346;12.150;2022-10-24T13:11:54;15.10;99.90
14277;DHT22;7222;57.346;12.150;2022-10-24T13:17:22;15.00;99.90
14277;DHT22;7222;57.346;12.150;2022-10-24T13:20:04;15.10;99.90
14277;DHT22;7222;57.346;12.150;2022-10-24T13:22:34;15.20;99.90
14277;DHT22;7222;57.346;12.150;2022-10-24T13:25:24;15.20;99.90
14277;DHT22;7222;57.346;12.150;2022-10-24T13:28:31;15.20;99.90
14277;DHT22;7222;57.346;12.150;2022-10-24T13:37:15;15.20;99.90
14277;DHT22;7222;57.346;12.150;2022-10-24T13:39:48;15.30;99.90
14277;DHT22;7222;57.346;12.150;2022-10-24T13:42:25;15.30;99.90
14277;DHT22;7222;57.346;12.150;2022-10-24T13:44:57;15.30;99.90
14277;DHT22;7222;57.346;12.150;2022-10-24T13:47:28;15.40;99.90
14277;DHT22;7222;57.346;12.150;2022-10-24T13:50:00;15.30;99.90
14277;DHT22;7222;57.346;12.150;2022-10-24T13:52:35;15.40;99.90
14277;DHT22;7222;57.346;12.150;2022-10-24T13:55:13;15.40;99.90
14277;DHT22;7222;57.346;12.150;2022-10-24T13:57:55;15.40;99.90
14277;DHT22;7222;57.346;12.150;2022-10-24T14:00:26;15.50;99.90
14277;DHT22;7222;57.346;12.150;2022-10-24T14:02:54;15.40;99.90
14277;DHT22;7222;57.346;12.150;2022-10-24T14:05:29;15.50;99.90
14277;DHT22;7222;57.346;12.150;2022-10-24T14:07:57;15.40;99.90
14277;DHT22;7222;57.346;12.150;2022-10-24T14:10:25;15.50;99.90
14277;DHT22;7222;57.346;12.150;2022-10-24T14:12:53;15.40;99.90
14277;DHT22;7222;57.346;12.150;2022-10-24T14:15:24;15.50;99.90
14277;DHT22;7222;57.346;12.150;2022-10-24T14:17:54;15.40;99.90
14277;DHT22;7222;57.346;12.150;2022-10-24T14:20:23;15.50;99.90
14277;DHT22;7222;57.346;12.150;2022-10-24T14:22:52;15.50;99.90
14277;DHT22;7222;57.346;12.150;2022-10-24T14:25:37;15.60;99.90
14277;DHT22;7222;57.346;12.150;2022-10-24T14:28:13;15.60;99.90
14277;DHT22;7222;57.346;12.150;2022-10-24T14:30:51;15.60;99.90
14277;DHT22;7222;57.346;12.150;2022-10-24T14:33:22;15.60;99.90
14277;DHT22;7222;57.346;12.150;2022-10-24T14:35:51;15.60;99.90
14277;DHT22;7222;57.346;12.150;2022-10-24T14:38:21;15.60;99.90
14277;DHT22;7222;57.346;12.150;2022-10-24T14:40:48;15.70;99.90
14277;DHT22;7222;57.346;12.150;2022-10-24T14:43:18;15.70;99.90
14277;DHT22;7222;57.346;12.150;2022-10-24T14:46:21;15.70;99.90
14277;DHT22;7222;57.346;12.150;2022-10-24T14:48:49;15.70;99.90
14277;DHT22;7222;57.346;12.150;2022-10-24T14:51:24;15.70;99.90
14277;DHT22;7222;57.346;12.150;2022-10-24T14:53:54;15.70;99.90
14277;DHT22;7222;57.346;12.150;2022-10-24T14:56:24;15.70;99.90
14277;DHT22;7222;57.346;12.150;2022-10-24T14:58:53;15.70;99.90
14277;DHT22;7222;57.346;12.150;2022-10-24T15:01:22;15.60;99.90
14277;DHT22;7222;57.346;12.150;2022-10-24T15:03:50;15.60;99.90
14277;DHT22;7222;57.346;12.150;2022-10-24T15:06:22;15.60;99.90
14277;DHT22;7222;57.346;12.150;2022-10-24T15:09:02;15.60;99.90
14277;DHT22;7222;57.346;12.150;2022-10-24T15:11:30;15.60;99.90
14277;DHT22;7222;57.346;12.150;2022-10-24T15:14:01;15.60;99.90
14277;DHT22;7222;57.346;12.150;2022-10-24T15:16:31;15.60;99.90
14277;DHT22;7222;57.346;12.150;2022-10-24T15:19:00;15.60;99.90
14277;DHT22;7222;57.346;12.150;2022-10-24T15:21:31;15.60;99.90
14277;DHT22;7222;57.346;12.150;2022-10-24T15:24:01;15.60;99.90
14277;DHT22;7222;57.346;12.150;2022-10-24T15:26:31;15.60;99.90
14277;DHT22;7222;57.346;12.150;2022-10-24T15:29:06;15.60;99.90
14277;DHT22;7222;57.346;12.150;2022-10-24T15:31:37;15.60;99.90
14277;DHT22;7222;57.346;12.150;2022-10-24T15:34:05;15.60;99.90
14277;DHT22;7222;57.346;12.150;2022-10-24T15:36:35;15.60;99.90
14277;DHT22;7222;57.346;12.150;2022-10-24T15:39:05;15.60;99.90
14277;DHT22;7222;57.346;12.150;2022-10-24T15:41:32;15.60;99.90
14277;DHT22;7222;57.346;12.150;2022-10-24T15:44:00;15.60;99.90
14277;DHT22;7222;57.346;12.150;2022-10-24T15:46:27;15.60;99.90
14277;DHT22;7222;57.346;12.150;2022-10-24T15:48:55;15.60;99.90
14277;DHT22;7222;57.346;12.150;2022-10-24T15:51:23;15.60;99.90
14277;DHT22;7222;57.346;12.150;2022-10-24T15:53:51;15.60;99.90
14277;DHT22;7222;57.346;12.150;2022-10-24T15:56:20;15.60;99.90
14277;DHT22;7222;57.346;12.150;2022-10-24T15:58:49;15.60;99.90
14277;DHT22;7222;57.346;12.150;2022-10-24T16:01:22;15.60;99.90
14277;DHT22;7222;57.346;12.150;2022-10-24T16:03:50;15.60;99.90
14277;DHT22;7222;57.346;12.150;2022-10-24T16:06:17;15.50;99.90
14277;DHT22;7222;57.346;12.150;2022-10-24T16:08:45;15.50;99.90